sensor_id;sensor_type;location;lat;lon;timestamp;pressure;altitude;pressure_sealevel;temperature;humidity
15558;BME280;7880;50.110;9.372;2023-06-26T00:01:08;16.56353722597123;;;16.375;100.0
15558;BME280;7880;50.110;9.372;2023-06-26T00:06:15;16.523196029668906;;;16.375;100.0
15558;BME280;7880;50.110;9.372;2023-06-26T00:11:20;16.523196029668906;;;16.437;100.0
15558;BME280;7880;50.110;9.372;2023-06-26T00:16:21;16.42234312040382;;;16.25;100.0
15558;BME280;7880;50.110;9.372;2023-06-26T00:21:28;16.200467129802565;;;16.062;100.0
15558;BME280;7880;50.110;9.372;2023-06-26T00:26:28;16.29627714753151;;;16.125;100.0
15558;BME280;7880;50.110;9.372;2023-06-26T00:31:32;16.361831430724123;;;16.125;100.0
15558;BME280;7880;50.110;9.372;2023-06-26T00:36:35;16.230722913524367;;;16.125;100.0
15558;BME280;7880;50.110;9.372;2023-06-26T00:41:40;16.139955593791093;;;16.062;100.0
15558;BME280;7880;50.110;9.372;2023-06-26T00:46:45;16.215595020353796;;;16.0;100.0
15558;BME280;7880;50.110;9.372;2023-06-26T00:51:49;16.180296613142126;;;16.0;100.0
15558;BME280;7880;50.110;9.372;2023-06-26T00:56:55;16.230722913524367;;;15.937;100.0
15558;BME280;7880;50.110;9.372;2023-06-26T01:02:05;16.508068085857666;;;16.25;100.0
15558;BME280;7880;50.110;9.372;2023-06-26T01:07:07;16.180296613142126;;;16.0;100.0
15558;BME280;7880;50.110;9.372;2023-06-26T01:12:09;15.76680204780423;;;15.687;100.0
15558;BME280;7880;50.110;9.372;2023-06-26T01:17:15;15.837398542376468;;;15.75;100.0
15558;BME280;7880;50.110;9.372;2023-06-26T01:22:23;15.797057681350271;;;15.75;100.0
15558;BME280;7880;50.110;9.372;2023-06-26T01:27:22;15.918080320308217;;;15.687;100.0
15558;BME280;7880;50.110;9.372;2023-06-26T01:32:25;15.877739422029117;;;15.812;100.0
15558;BME280;7880;50.110;9.372;2023-06-26T01:37:31;15.892867256700992;;;15.812;100.0
15558;BME280;7880;50.110;9.372;2023-06-26T01:42:37;15.872696811053903;;;15.75;100.0
15558;BME280;7880;50.110;9.372;2023-06-26T01:47:43;15.52979994751513;;;15.562;100.0
15558;BME280;7880;50.110;9.372;2023-06-26T01:52:53;15.691163009777664;;;15.562;100.0
15558;BME280;7880;50.110;9.372;2023-06-26T01:57:52;15.776887257822091;;;15.562;100.0
15558;BME280;7880;50.110;9.372;2023-06-26T02:02:52;15.464246288599679;;;15.437;100.0
15558;BME280;7880;50.110;9.372;2023-06-26T02:07:58;15.469288876000792;;;15.312;100.0
15558;BME280;7880;50.110;9.372;2023-06-26T02:12:58;15.030584860878298;;;15.062;100.0
15558;BME280;7880;50.110;9.372;2023-06-26T02:18:03;15.449118528142572;;;15.312;100.0
15558;BME280;7880;50.110;9.372;2023-06-26T02:23:07;15.464246288599679;;;15.375;100.0
15558;BME280;7880;50.110;9.372;2023-06-26T02:27:55;15.464246288599679;;;15.25;100.0
15558;BME280;7880;50.110;9.372;2023-06-26T02:33:06;15.595353655616055;;;15.5;100.0
15558;BME280;7880;50.110;9.372;2023-06-26T02:38:07;15.156649007485248;;;15.25;100.0
15558;BME280;7880;50.110;9.372;2023-06-26T02:43:09;15.373479765147204;;;15.25;100.0
15558;BME280;7880;50.110;9.372;2023-06-26T02:48:15;15.040669985912974;;;15.0;100.0
15558;BME280;7880;50.110;9.372;2023-06-26T02:53:17;14.874265571706928;;;14.812;100.0
15558;BME280;7880;50.110;9.372;2023-06-26T02:58:20;14.980159253167221;;;14.875;100.0
15558;BME280;7880;50.110;9.372;2023-06-26T03:03:25;14.970074135117466;;;14.75;100.0
15558;BME280;7880;50.110;9.372;2023-06-26T03:08:28;15.040669985912974;;;14.875;100.0
15558;BME280;7880;50.110;9.372;2023-06-26T03:13:33;15.186904429737478;;;15.0;100.0
15558;BME280;7880;50.110;9.372;2023-06-26T03:18:37;14.823840054217726;;;14.812;100.0
15558;BME280;7880;50.110;9.372;2023-06-26T03:23:41;14.702818930987268;;;14.687;100.0
15558;BME280;7880;50.110;9.372;2023-06-26T03:28:47;14.919648562330986;;;14.875;100.0
15558;BME280;7880;50.110;9.372;2023-06-26T03:33:51;14.909563451266148;;;14.812;100.0
15558;BME280;7880;50.110;9.372;2023-06-26T03:38:57;14.879308125056559;;;14.687;100.0
15558;BME280;7880;50.110;9.372;2023-06-26T03:44:13;14.738116741279374;;;14.625;100.0
15558;BME280;7880;50.110;9.372;2023-06-26T03:49:07;14.864180465880782;;;14.687;100.0
15558;BME280;7880;50.110;9.372;2023-06-26T03:54:10;14.949903902510414;;;14.937;100.0
15558;BME280;7880;50.110;9.372;2023-06-26T03:59:14;14.788542209292064;;;14.812;100.0
15558;BME280;7880;50.110;9.372;2023-06-26T04:04:18;14.919648562330986;;;14.875;100.0
15558;BME280;7880;50.110;9.372;2023-06-26T04:09:22;15.10118076056824;;;15.062;100.0
15558;BME280;7880;50.110;9.372;2023-06-26T04:14:27;14.859137913404265;;;14.812;100.0
15558;BME280;7880;50.110;9.372;2023-06-26T04:19:31;15.14152130028815;;;15.0;100.0
15558;BME280;7880;50.110;9.372;2023-06-26T04:24:34;15.20203214479261;;;15.125;100.0
15558;BME280;7880;50.110;9.372;2023-06-26T04:29:38;15.12135102809989;;;15.062;100.0
15558;BME280;7880;50.110;9.372;2023-06-26T04:34:48;15.171776717301691;;;14.937;100.0
15558;BME280;7880;50.110;9.372;2023-06-26T04:39:48;15.388607512507587;;;15.187;100.0
15558;BME280;7880;50.110;9.372;2023-06-26T04:44:52;15.555012906348566;;;15.375;100.0
15558;BME280;7880;50.110;9.372;2023-06-26T04:49:59;15.681077809655108;;;15.625;100.0
15558;BME280;7880;50.110;9.372;2023-06-26T04:55:04;16.09961459306651;;;15.937;100.0
15558;BME280;7880;50.110;9.372;2023-06-26T05:00:14;16.25089344182634;;;16.062;100.0
15558;BME280;7880;50.110;9.372;2023-06-26T05:05:14;16.42738576310221;;;16.312;100.0
15558;BME280;7880;50.110;9.372;2023-06-26T05:10:18;16.729944857605734;;;16.5;100.0
15558;BME280;7880;50.110;9.372;2023-06-26T05:15:21;16.876182128867367;;;16.687;100.0
15558;BME280;7880;50.110;9.372;2023-06-26T05:20:31;17.037547677761175;;;16.812;100.0
15558;BME280;7880;50.110;9.372;2023-06-26T05:25:36;17.178742777515435;;;17.0;100.0
15558;BME280;7880;50.110;9.372;2023-06-26T05:30:36;17.395578553550877;;;17.187;100.0
15558;BME280;7880;50.110;9.372;2023-06-26T05:35:42;17.546859646216035;;;17.312;100.0
15558;BME280;7880;50.110;9.372;2023-06-26T05:40:58;17.62754300273955;;;17.437;100.0
15558;BME280;7880;50.110;9.372;2023-06-26T05:45:51;17.93010625327006;;;17.625;100.0
15558;BME280;7880;50.110;9.372;2023-06-26T05:50:55;18.11668744669878;;;17.875;100.0
15558;BME280;7880;50.110;9.372;2023-06-26T05:56:02;18.308311789814617;;;18.062;100.0
15558;BME280;7880;50.110;9.372;2023-06-26T06:01:06;18.520107605360682;;;18.25;100.0
15558;BME280;7880;50.110;9.372;2023-06-26T06:06:10;18.93361520106555;;;18.625;100.0
15558;BME280;7880;50.110;9.372;2023-06-26T06:11:15;19.35721037700423;;;19.0;100.0
15558;BME280;7880;50.110;9.372;2023-06-26T06:16:22;19.740464924747357;;;19.375;100.0
15558;BME280;7880;50.110;9.372;2023-06-26T06:21:33;19.972435599245365;;;19.625;100.0
15558;BME280;7880;50.110;9.372;2023-06-26T06:26:27;20.214492611825698;;;19.937;100.0
15558;BME280;7880;50.110;9.372;2023-06-26T06:31:32;20.617922456242376;;;20.25;100.0
15558;BME280;7880;50.110;9.372;2023-06-26T06:36:36;21.06169743645587;;;20.625;100.0
15558;BME280;7880;50.110;9.372;2023-06-26T06:41:40;21.15246986915008;;;20.812;100.0
15558;BME280;7880;50.110;9.372;2023-06-26T06:46:45;21.444959460390965;;;21.062;100.0
15558;BME280;7880;50.110;9.372;2023-06-26T06:51:51;21.84839498587535;;;21.437;100.0
15558;BME280;7880;50.110;9.372;2023-06-26T06:56:53;22.110629076283658;;;21.75;100.0
15558;BME280;7880;50.110;9.372;2023-06-26T07:01:56;22.297219196730293;;;22.0;100.0
15558;BME280;7880;50.110;9.372;2023-06-26T07:07:00;22.14088690658682;;;21.937;100.0
15558;BME280;7880;50.110;9.372;2023-06-26T07:12:04;22.46363774841302;;;22.187;100.0
15558;BME280;7880;50.110;9.372;2023-06-26T07:17:09;22.367820967826994;;;22.187;100.0
15558;BME280;7880;50.110;9.372;2023-06-26T07:22:13;23.250347919581692;;;22.812;100.0
15558;BME280;7880;50.110;9.372;2023-06-26T07:27:20;23.431897426448995;;;23.125;100.0
15558;BME280;7880;50.110;9.372;2023-06-26T07:32:04;23.53780147964135;;;23.25;100.0
15558;BME280;7880;50.110;9.372;2023-06-26T07:37:13;23.97150513178203;;;23.625;100.0
15558;BME280;7880;50.110;9.372;2023-06-26T07:42:14;24.127840696979547;;;23.812;100.0
15558;BME280;7880;50.110;9.372;2023-06-26T07:47:19;24.52120238855132;;;24.187;93.28063129422371
15558;BME280;7880;50.110;9.372;2023-06-26T07:52:22;24.586762842629106;;;24.437;89.13253693094235
15558;BME280;7880;50.110;9.372;2023-06-26T07:57:27;24.849005150794984;;;24.687;81.06267041843205
15558;BME280;7880;50.110;9.372;2023-06-26T08:02:43;25.222197484620846;;;25.125;68.41414479982915
15558;BME280;7880;50.110;9.372;2023-06-26T08:07:36;25.504614364192822;;;25.375;65.90184139309558
15558;BME280;7880;50.110;9.372;2023-06-26T08:12:41;25.615564102306962;;;25.375;65.43912781964642
15558;BME280;7880;50.110;9.372;2023-06-26T08:17:45;25.59034824036644;;;25.5;64.5532102819727
15558;BME280;7880;50.110;9.372;2023-06-26T08:22:49;25.539916538313264;;;25.437;66.8534120399854
15558;BME280;7880;50.110;9.372;2023-06-26T08:27:53;25.77694579102099;;;25.625;61.98473849988197
15558;BME280;7880;50.110;9.372;2023-06-26T08:32:59;26.049278066516855;;;25.75;62.64967503356523
15558;BME280;7880;50.110;9.372;2023-06-26T08:38:01;25.913111822685458;;;25.687;62.33626447268441
15558;BME280;7880;50.110;9.372;2023-06-26T08:43:05;26.1350124770368;;;25.937;61.14422431649435
15558;BME280;7880;50.110;9.372;2023-06-26T08:48:08;26.245963015506277;;;26.062;62.98290010352282
15558;BME280;7880;50.110;9.372;2023-06-26T08:53:23;26.160228496138007;;;26.062;61.632501547688946
15558;BME280;7880;50.110;9.372;2023-06-26T08:58:21;26.22579017985263;;;26.125;60.24551416958836
15558;BME280;7880;50.110;9.372;2023-06-26T09:08:30;26.16527170083136;;;26.0;60.71336464381528
15558;BME280;7880;50.110;9.372;2023-06-26T09:13:34;26.30143833756447;;;26.062;61.059434901978626
15558;BME280;7880;50.110;9.372;2023-06-26T09:18:40;26.452734849439004;;;26.25;62.19483814178319
15558;BME280;7880;50.110;9.372;2023-06-26T09:23:52;26.4930806301767;;;26.25;62.060056889344075
15558;BME280;7880;50.110;9.372;2023-06-26T09:28:51;26.77550161688123;;;26.5;62.91273199827237
15558;BME280;7880;50.110;9.372;2023-06-26T09:33:58;26.841063762182603;;;26.562;62.34646885300818
15558;BME280;7880;50.110;9.372;2023-06-26T09:39:06;27.209221337828787;;;26.875;63.188018873687696
15558;BME280;7880;50.110;9.372;2023-06-26T09:44:06;26.709939520765328;;;26.75;61.320700276734584
15558;BME280;7880;50.110;9.372;2023-06-26T09:49:11;26.982274703733857;;;26.687;62.27708730489562
15558;BME280;7880;50.110;9.372;2023-06-26T09:54:16;26.609074853552737;;;26.562;62.19747460476631
15558;BME280;7880;50.110;9.372;2023-06-26T09:59:21;26.57881547608995;;;26.437;62.967928559570915
15558;BME280;7880;50.110;9.372;2023-06-26T10:04:26;26.861236739862942;;;26.562;62.13382466525188
15558;BME280;7880;50.110;9.372;2023-06-26T10:09:36;26.709939520765328;;;26.562;63.81271988952697
15558;BME280;7880;50.110;9.372;2023-06-26T10:14:37;26.427518745936688;;;26.312;63.55083829320667
15558;BME280;7880;50.110;9.372;2023-06-26T10:19:44;26.881409722199898;;;26.625;61.71289710545805
15558;BME280;7880;50.110;9.372;2023-06-26T10:24:49;27.057923516281882;;;26.75;61.864374500357755
15558;BME280;7880;50.110;9.372;2023-06-26T10:29:56;27.46642823559814;;;27.062;62.31860119011771
15558;BME280;7880;50.110;9.372;2023-06-26T10:34:59;27.310086697712542;;;27.062;60.71408632023537
15558;BME280;7880;50.110;9.372;2023-06-26T10:40:03;27.673202957212926;;;27.312;59.77587747901751
15558;BME280;7880;50.110;9.372;2023-06-26T10:45:10;27.189048279821872;;;27.125;58.666897758085064
15558;BME280;7880;50.110;9.372;2023-06-26T10:50:20;27.21426460305811;;;26.937;59.27178782582122
15558;BME280;7880;50.110;9.372;2023-06-26T10:55:16;27.46642823559814;;;27.187;58.821821162660136
15558;BME280;7880;50.110;9.372;2023-06-26T11:00:21;27.40086562114302;;;27.187;59.527267221366024
15558;BME280;7880;50.110;9.372;2023-06-26T11:05:29;27.46642823559814;;;27.25;59.8597054258817
15558;BME280;7880;50.110;9.372;2023-06-26T11:11:00;28.086753868148662;;;27.625;60.22369536439328
15558;BME280;7880;50.110;9.372;2023-06-26T11:15:43;27.542077467241324;;;27.562;59.71492909412732
15558;BME280;7880;50.110;9.372;2023-06-26T11:20:44;27.25461073537008;;;27.125;61.81952866330733
15558;BME280;7880;50.110;9.372;2023-06-26T11:25:48;27.637899921328064;;;27.25;61.80599384142622
15558;BME280;7880;50.110;9.372;2023-06-26T11:30:53;27.12348587345914;;;27.062;62.61333639538487
15558;BME280;7880;50.110;9.372;2023-06-26T11:36:08;26.992361208290095;;;26.875;64.65547477879444
15558;BME280;7880;50.110;9.372;2023-06-26T11:41:03;27.133572394313525;;;26.875;65.46880993803529
15558;BME280;7880;50.110;9.372;2023-06-26T11:46:06;26.987317955866455;;;26.75;66.29787250045875
15558;BME280;7880;50.110;9.372;2023-06-26T11:51:12;26.830977275088664;;;26.687;65.89433833334111
15558;BME280;7880;50.110;9.372;2023-06-26T11:56:19;26.4930806301767;;;26.437;66.73805300393649
15558;BME280;7880;50.110;9.372;2023-06-26T12:01:19;26.422475526109338;;;26.312;68.94149293970317
15558;BME280;7880;50.110;9.372;2023-06-26T12:06:24;26.251006225147286;;;26.125;70.40417427349283
15558;BME280;7880;50.110;9.372;2023-06-26T12:11:37;26.30143833756447;;;26.125;70.98634247834133
15558;BME280;7880;50.110;9.372;2023-06-26T12:16:34;26.407345868373522;;;26.125;72.83327744826046
15558;BME280;7880;50.110;9.372;2023-06-26T12:21:47;26.336740833573277;;;26.125;73.37893041752113
15558;BME280;7880;50.110;9.372;2023-06-26T12:26:45;26.367000127217032;;;26.125;72.65563279834548
15558;BME280;7880;50.110;9.372;2023-06-26T12:32:07;26.639334241492907;;;26.375;73.71870303034761
15558;BME280;7880;50.110;9.372;2023-06-26T12:36:14;26.145098883804167;;;26.187;74.23105932115428
15558;BME280;7880;50.110;9.372;2023-06-26T12:41:24;26.124926071433585;;;26.0;77.12807407450663
15558;BME280;7880;50.110;9.372;2023-06-26T12:46:33;26.220746971666813;;;26.0;77.01093762899232
15558;BME280;7880;50.110;9.372;2023-06-26T12:51:28;26.407345868373522;;;26.125;74.7807076887282
15558;BME280;7880;50.110;9.372;2023-06-26T12:56:31;26.911669204436475;;;26.625;70.33019620247744
15558;BME280;7880;50.110;9.372;2023-06-26T13:01:43;26.518296752596505;;;26.437;71.07281917536517
15558;BME280;7880;50.110;9.372;2023-06-26T13:06:48;27.07809654402081;;;26.687;69.0618430051223
15558;BME280;7880;50.110;9.372;2023-06-26T13:11:52;27.345389601174976;;;27.0;67.80944564045508
15558;BME280;7880;50.110;9.372;2023-06-26T13:16:57;27.00749096730724;;;26.875;70.16189173072293
15558;BME280;7880;50.110;9.372;2023-06-26T13:22:01;26.856193495006302;;;26.687;69.48444191418376
15558;BME280;7880;50.110;9.372;2023-06-26T13:27:05;26.477950960217278;;;26.312;69.93945953319212
15558;BME280;7880;50.110;9.372;2023-06-26T13:32:10;26.54351288229227;;;26.25;71.47325890959455
15558;BME280;7880;50.110;9.372;2023-06-26T13:37:13;26.195530935103307;;;26.062;71.01151512437396
15558;BME280;7880;50.110;9.372;2023-06-26T13:42:18;26.02910527626518;;;25.875;70.21399456104908
15558;BME280;7880;50.110;9.372;2023-06-26T13:47:23;26.498123854078585;;;26.187;69.96270172368473
15558;BME280;7880;50.110;9.372;2023-06-26T13:52:26;26.266135855816536;;;26.125;69.3132970675721
15558;BME280;7880;50.110;9.372;2023-06-26T13:57:42;26.326654404686998;;;26.125;70.01637326843931
15558;BME280;7880;50.110;9.372;2023-06-26T14:02:45;26.205617348855593;;;26.0;70.96312282073617
15558;BME280;7880;50.110;9.372;2023-06-26T14:07:44;26.1350124770368;;;26.062;70.77801399752698
15558;BME280;7880;50.110;9.372;2023-06-26T14:12:47;25.665995848015882;;;25.375;72.55930812274462
15558;BME280;7880;50.110;9.372;2023-06-26T14:18:06;25.92319820384146;;;25.625;73.3144730899644
15558;BME280;7880;50.110;9.372;2023-06-26T14:22:56;25.565132385701872;;;25.437;72.85671960803263
15558;BME280;7880;50.110;9.372;2023-06-26T14:28:01;25.000299148098566;;;24.937;73.8797069103265
15558;BME280;7880;50.110;9.372;2023-06-26T14:33:05;25.106205102062084;;;24.875;74.37750141201572
15558;BME280;7880;50.110;9.372;2023-06-26T14:38:09;24.828832637611775;;;24.687;74.31192667105098
15558;BME280;7880;50.110;9.372;2023-06-26T14:43:14;24.97004032768309;;;24.75;74.92658008372372
15558;BME280;7880;50.110;9.372;2023-06-26T14:48:27;24.89943645412568;;;24.687;75.475174119083
15558;BME280;7880;50.110;9.372;2023-06-26T14:53:25;25.06585996160866;;;24.687;75.16266910884106
15558;BME280;7880;50.110;9.372;2023-06-26T14:58:36;24.813703255780275;;;24.625;74.26724357883278
15558;BME280;7880;50.110;9.372;2023-06-26T15:03:33;24.536331719742158;;;24.375;74.8154306576077
15558;BME280;7880;50.110;9.372;2023-06-26T15:08:39;24.17827158412547;;;24.062;74.40657992286941
15558;BME280;7880;50.110;9.372;2023-06-26T15:13:51;24.405210936442018;;;24.062;75.4290978021523
15558;BME280;7880;50.110;9.372;2023-06-26T15:18:53;24.218616314796964;;;24.0;74.42066958138983
15558;BME280;7880;50.110;9.372;2023-06-26T15:24:02;24.309392026910793;;;24.062;73.05426782358738
15558;BME280;7880;50.110;9.372;2023-06-26T15:28:59;24.339650618570158;;;24.062;70.55738879474896
15558;BME280;7880;50.110;9.372;2023-06-26T15:34:13;24.526245498657225;;;24.25;68.91193422899464
15558;BME280;7880;50.110;9.372;2023-06-26T15:39:10;24.16818540436798;;;23.937;68.18091344828474
15558;BME280;7880;50.110;9.372;2023-06-26T15:44:12;24.51111616921262;;;24.187;65.03005301835688
15558;BME280;7880;50.110;9.372;2023-06-26T15:49:23;24.385038525704296;;;24.187;66.11677578478037
15558;BME280;7880;50.110;9.372;2023-06-26T15:54:25;24.052194420830347;;;23.937;63.07088640867156
15558;BME280;7880;50.110;9.372;2023-06-26T15:59:29;24.16314231492579;;;23.875;62.859184964028344
15558;BME280;7880;50.110;9.372;2023-06-26T16:04:33;24.20853013038286;;;24.062;61.90303641361005
15558;BME280;7880;50.110;9.372;2023-06-26T16:09:57;24.26904725432978;;;23.937;60.342200499898446
15558;BME280;7880;50.110;9.372;2023-06-26T16:14:45;24.20853013038286;;;24.0;58.81834132135996
15558;BME280;7880;50.110;9.372;2023-06-26T16:19:44;24.087496008217567;;;23.875;58.74741600680515
15558;BME280;7880;50.110;9.372;2023-06-26T16:24:49;24.22365940744057;;;24.0;58.202822528702626
15558;BME280;7880;50.110;9.372;2023-06-26T16:29:53;24.04715133808204;;;23.812;57.84610989904947
15558;BME280;7880;50.110;9.372;2023-06-26T16:34:57;23.835342125460738;;;23.687;57.117490739631464
15558;BME280;7880;50.110;9.372;2023-06-26T16:40:02;23.820212915632872;;;23.687;56.33734818858254
15558;BME280;7880;50.110;9.372;2023-06-26T16:45:07;23.739523840788753;;;23.562;57.37503913342158
15558;BME280;7880;50.110;9.372;2023-06-26T16:50:11;23.598318139091134;;;23.437;56.677144389963985
15558;BME280;7880;50.110;9.372;2023-06-26T16:55:15;23.588232026272454;;;23.312;57.55380139070604
15558;BME280;7880;50.110;9.372;2023-06-26T17:00:19;23.55293064057478;;;23.375;56.63714566165768
15558;BME280;7880;50.110;9.372;2023-06-26T17:05:24;23.482327911962056;;;23.312;57.364088065418684
15558;BME280;7880;50.110;9.372;2023-06-26T17:10:33;23.431897426448995;;;23.187;58.276630606704536
15558;BME280;7880;50.110;9.372;2023-06-26T17:15:37;23.336079584155232;;;23.125;57.3088518137322
15558;BME280;7880;50.110;9.372;2023-06-26T17:20:41;23.230175775435054;;;23.0;56.074007472962
15558;BME280;7880;50.110;9.372;2023-06-26T17:25:43;23.09905695198686;;;22.875;56.85252829259909
15558;BME280;7880;50.110;9.372;2023-06-26T17:30:47;23.058712738199393;;;22.875;57.345995904780864
15558;BME280;7880;50.110;9.372;2023-06-26T17:35:52;22.957852285221453;;;22.812;57.46134662503416
15558;BME280;7880;50.110;9.372;2023-06-26T17:40:29;22.846905921405416;;;22.687;58.31022604158552
15558;BME280;7880;50.110;9.372;2023-06-26T17:45:34;22.741002705530263;;;22.562;58.14238822700266
15558;BME280;7880;50.110;9.372;2023-06-26T17:50:37;22.61997061597649;;;22.437;58.37063344795126
15558;BME280;7880;50.110;9.372;2023-06-26T17:55:42;22.4686807397753;;;22.312;58.23883978551496
15558;BME280;7880;50.110;9.372;2023-06-26T18:00:46;22.150972852349515;;;22.062;59.49990841095981
15558;BME280;7880;50.110;9.372;2023-06-26T18:05:49;22.09045719523565;;;21.937;60.28360665667151
15558;BME280;7880;50.110;9.372;2023-06-26T18:10:53;21.818137256853515;;;21.687;61.38113164230362
15558;BME280;7880;50.110;9.372;2023-06-26T18:15:57;21.66180582381785;;;21.562;62.46162420977752
15558;BME280;7880;50.110;9.372;2023-06-26T18:21:09;21.586161682434614;;;21.375;63.75671952459642
15558;BME280;7880;50.110;9.372;2023-06-26T18:26:08;21.33401501742774;;;21.187;64.88872696996913
15558;BME280;7880;50.110;9.372;2023-06-26T18:31:20;21.21802779585123;;;21.062;65.81144319844879
15558;BME280;7880;50.110;9.372;2023-06-26T18:36:16;21.051611616421724;;;20.875;66.38445343368335
15558;BME280;7880;50.110;9.372;2023-06-26T18:41:27;20.920496061915763;;;20.812;66.31125438877146
15558;BME280;7880;50.110;9.372;2023-06-26T18:46:28;20.839809664624045;;;20.687;66.43567654118597
15558;BME280;7880;50.110;9.372;2023-06-26T18:51:32;20.82972387020127;;;20.625;67.53084086018625
15558;BME280;7880;50.110;9.372;2023-06-26T18:56:37;20.65322265625;;;20.5;67.5460381695065
15558;BME280;7880;50.110;9.372;2023-06-26T19:01:47;20.471678922418505;;;20.375;67.2426743274263
15558;BME280;7880;50.110;9.372;2023-06-26T19:06:45;20.451507419720294;;;20.25;67.00403487766826
15558;BME280;7880;50.110;9.372;2023-06-26T19:11:49;20.32543563335785;;;20.187;66.40797601023364
15558;BME280;7880;50.110;9.372;2023-06-26T19:17:08;20.209449750557543;;;20.062;65.39214403291396
15558;BME280;7880;50.110;9.372;2023-06-26T19:22:04;20.0934640217165;;;20.0;64.16618455087092
15558;BME280;7880;50.110;9.372;2023-06-26T19:27:07;20.0783354597399;;;19.937;63.55576942725212
15558;BME280;7880;50.110;9.372;2023-06-26T19:32:12;19.97747844683472;;;19.875;63.943580452116436
15558;BME280;7880;50.110;9.372;2023-06-26T19:37:17;19.86653586709872;;;19.75;63.570398213168126
15558;BME280;7880;50.110;9.372;2023-06-26T19:42:20;19.7354220908368;;;19.625;63.573529028597804
15558;BME280;7880;50.110;9.372;2023-06-26T19:47:24;19.720293590851362;;;19.562;62.72630560810969
15558;BME280;7880;50.110;9.372;2023-06-26T19:52:32;19.619436991220574;;;19.5;63.054778695699675
15558;BME280;7880;50.110;9.372;2023-06-26T19:57:36;19.57909438396455;;;19.437;62.912346958017636
15558;BME280;7880;50.110;9.372;2023-06-26T20:02:40;19.488323585741455;;;19.375;62.79401737228524
15558;BME280;7880;50.110;9.372;2023-06-26T20:07:42;19.35721037700423;;;19.25;63.36830064092916
15558;BME280;7880;50.110;9.372;2023-06-26T20:12:47;19.266439809283476;;;19.125;63.90684582617674
15558;BME280;7880;50.110;9.372;2023-06-26T20:17:52;19.145412532339105;;;19.0;64.38942647602555
15558;BME280;7880;50.110;9.372;2023-06-26T20:22:58;19.145412532339105;;;19.0;64.81993506350517
15558;BME280;7880;50.110;9.372;2023-06-26T20:28:02;19.07481336487108;;;18.937;65.57948812715435
15558;BME280;7880;50.110;9.372;2023-06-26T20:33:10;19.00421425444656;;;18.875;65.66107038678041
15558;BME280;7880;50.110;9.372;2023-06-26T20:38:12;18.99412867189967;;;18.875;66.24118513286582
15558;BME280;7880;50.110;9.372;2023-06-26T20:43:18;18.948743564845064;;;18.812;66.19523385773965
15558;BME280;7880;50.110;9.372;2023-06-26T20:48:22;18.984043090516934;;;18.812;66.50935974647544
15558;BME280;7880;50.110;9.372;2023-06-26T20:53:29;18.91848683990538;;;18.75;66.76308916913298
15558;BME280;7880;50.110;9.372;2023-06-26T20:58:36;18.812588385125856;;;18.687;66.94955223193583
15558;BME280;7880;50.110;9.372;2023-06-26T21:03:39;18.7772889287211;;;18.625;67.3662832637153
15558;BME280;7880;50.110;9.372;2023-06-26T21:08:41;18.7772889287211;;;18.625;68.03777274518119
15558;BME280;7880;50.110;9.372;2023-06-26T21:13:49;18.6461767869303;;;18.562;68.51734762750219
15558;BME280;7880;50.110;9.372;2023-06-26T21:18:51;18.53019313319237;;;18.437;69.41085497021285
15558;BME280;7880;50.110;9.372;2023-06-26T21:23:55;18.489851028850534;;;18.312;69.77815576858829
15558;BME280;7880;50.110;9.372;2023-06-26T21:28:58;18.39908136218437;;;18.312;70.56530585090371
15558;BME280;7880;50.110;9.372;2023-06-26T21:34:03;18.308311789814617;;;18.187;71.0999942694934
15558;BME280;7880;50.110;9.372;2023-06-26T21:39:08;18.31335454136133;;;18.187;71.2075927682376
15558;BME280;7880;50.110;9.372;2023-06-26T21:44:17;18.247798793955006;;;18.125;71.33122362050669
15558;BME280;7880;50.110;9.372;2023-06-26T21:49:18;18.207456819998335;;;18.125;71.21022809100832
15558;BME280;7880;50.110;9.372;2023-06-26T21:54:19;18.24275604619179;;;18.062;70.4356642107978